Time;durP1;ratioP1;P1;durP2;ratioP2;P2;SDS_P1;SDS_P2;PMS_P1;PMS_P2;Temp;Humidity;BMP_temperature;BMP_pressure;BME280_temperature;BME280_humidity;BME280_pressure;Samples;Min_cycle;Max_cycle;Signal;HPM_P1;HPM_P2
2021/06/26 00:00:41;;;;;;;6.00;1.52;;;19.10;99.90;;;;;;4189575;28;20044;-60
2021/06/26 00:02:44;;;;;;;4.35;1.70;;;19.00;99.90;;;;;;4187950;28;20087;-60
2021/06/26 00:04:46;;;;;;;5.95;1.65;;;19.00;99.90;;;;;;4190456;28;20028;-60
2021/06/26 00:06:49;;;;;;;7.50;1.70;;;19.00;99.90;;;;;;4190037;28;20041;-61
2021/06/26 00:08:52;;;;;;;5.10;1.65;;;19.00;99.90;;;;;;4189844;28;20579;-62
2021/06/26 00:10:58;;;;;;;6.95;1.70;;;18.90;99.90;;;;;;4190420;28;20102;-61
2021/06/26 00:13:01;;;;;;;3.30;1.30;;;18.90;99.90;;;;;;4188064;28;20122;-60
2021/06/26 00:15:05;;;;;;;5.13;1.63;;;18.90;99.90;;;;;;4190143;28;20033;-60
2021/06/26 00:17:08;;;;;;;5.38;1.33;;;18.90;99.90;;;;;;4189704;28;20032;-60
2021/06/26 00:19:09;;;;;;;3.47;1.60;;;18.90;99.90;;;;;;4190392;28;20036;-61
2021/06/26 00:21:11;;;;;;;8.65;1.77;;;18.90;99.90;;;;;;4188950;28;20554;-61
2021/06/26 00:23:14;;;;;;;5.28;1.38;;;18.90;99.90;;;;;;4189999;28;20040;-59
2021/06/26 00:25:15;;;;;;;4.05;1.98;;;18.90;99.90;;;;;;4187511;28;20472;-60
2021/06/26 00:27:19;;;;;;;5.03;1.55;;;18.90;99.90;;;;;;4190300;28;20162;-62
2021/06/26 00:29:20;;;;;;;7.03;1.52;;;19.00;99.90;;;;;;4188786;28;20570;-60
2021/06/26 00:31:22;;;;;;;3.20;1.50;;;19.00;99.90;;;;;;4189847;28;20500;-62
2021/06/26 00:33:24;;;;;;;4.90;1.30;;;19.00;99.90;;;;;;4189428;28;20032;-60
2021/06/26 00:35:26;;;;;;;6.72;1.40;;;19.00;99.90;;;;;;4188436;28;20033;-61
2021/06/26 00:37:27;;;;;;;6.47;1.55;;;19.00;99.90;;;;;;4189675;28;20447;-61
2021/06/26 00:39:30;;;;;;;9.25;1.60;;;19.10;99.90;;;;;;4189522;28;20110;-62
2021/06/26 00:41:31;;;;;;;5.65;1.40;;;19.10;99.90;;;;;;4189605;28;20090;-59
2021/06/26 00:43:34;;;;;;;7.05;1.65;;;19.10;99.90;;;;;;4189525;28;20770;-59
2021/06/26 00:45:36;;;;;;;5.22;1.60;;;19.10;99.90;;;;;;4189439;28;20447;-60
2021/06/26 00:47:40;;;;;;;5.18;2.35;;;19.00;99.90;;;;;;4187593;28;20823;-60
2021/06/26 00:49:42;;;;;;;6.07;1.55;;;19.00;99.90;;;;;;4189438;28;20033;-61
2021/06/26 00:51:43;;;;;;;5.32;1.52;;;19.00;99.90;;;;;;4189139;28;20085;-61
2021/06/26 00:53:44;;;;;;;5.93;1.98;;;18.90;99.90;;;;;;4189962;28;20423;-60
2021/06/26 00:55:52;;;;;;;6.45;2.08;;;18.90;99.90;;;;;;4188670;28;20087;-60
2021/06/26 00:57:58;;;;;;;3.83;1.17;;;18.80;99.90;;;;;;4189657;28;20063;-58
2021/06/26 01:00:04;;;;;;;7.47;1.35;;;18.80;99.90;;;;;;4188433;28;20032;-61
2021/06/26 01:02:07;;;;;;;6.00;1.60;;;18.80;99.90;;;;;;4189913;28;20058;-61
2021/06/26 01:04:09;;;;;;;7.38;1.38;;;18.80;99.90;;;;;;4188467;28;20028;-61
2021/06/26 01:06:11;;;;;;;9.23;1.52;;;18.80;99.90;;;;;;4188878;28;20420;-61
2021/06/26 01:08:12;;;;;;;8.45;2.78;;;18.80;99.90;;;;;;4188326;28;20028;-61
2021/06/26 01:10:14;;;;;;;9.10;1.50;;;18.70;99.90;;;;;;4189254;28;20036;-61
2021/06/26 01:12:15;;;;;;;9.98;1.40;;;18.70;99.90;;;;;;4188748;28;20090;-61
2021/06/26 01:14:16;;;;;;;13.00;2.40;;;18.70;99.90;;;;;;4189256;28;20032;-60
2021/06/26 01:16:18;;;;;;;5.25;1.52;;;18.60;99.90;;;;;;4188855;28;20032;-60
2021/06/26 01:18:19;;;;;;;4.22;1.33;;;18.60;99.90;;;;;;4188424;28;20048;-60
2021/06/26 01:20:20;;;;;;;7.22;1.70;;;18.60;99.90;;;;;;4188944;28;20033;-60
2021/06/26 01:22:22;;;;;;;5.80;1.45;;;18.60;99.90;;;;;;4188281;28;20040;-61
2021/06/26 01:24:23;;;;;;;6.45;1.75;;;18.60;99.90;;;;;;4189299;28;20480;-62
2021/06/26 01:26:28;;;;;;;5.65;1.70;;;18.60;99.90;;;;;;4188205;28;20067;-61
2021/06/26 01:28:30;;;;;;;3.08;1.98;;;18.60;99.90;;;;;;4189198;28;20098;-61
2021/06/26 01:30:34;;;;;;;6.93;1.85;;;18.60;99.90;;;;;;4187927;28;20044;-60
2021/06/26 01:32:35;;;;;;;3.78;2.40;;;18.50;99.90;;;;;;4189470;28;20048;-62
2021/06/26 01:34:37;;;;;;;9.93;2.35;;;18.60;99.90;;;;;;4188102;28;20045;-61
2021/06/26 01:36:38;;;;;;;4.03;1.83;;;18.60;99.90;;;;;;4189133;28;20102;-60
2021/06/26 01:38:39;;;;;;;5.35;1.35;;;18.60;99.90;;;;;;4188980;28;20093;-61
2021/06/26 01:40:41;;;;;;;5.68;1.20;;;18.50;99.90;;;;;;4189196;28;20090;-61
2021/06/26 01:42:42;;;;;;;5.05;1.65;;;18.40;99.90;;;;;;4188490;28;20037;-61
2021/06/26 01:44:43;;;;;;;2.83;1.40;;;18.10;99.90;;;;;;4188859;28;20447;-60
2021/06/26 01:46:45;;;;;;;4.97;1.50;;;18.00;99.90;;;;;;4188630;28;20625;-60
2021/06/26 01:48:46;;;;;;;8.23;1.63;;;18.00;99.90;;;;;;4188845;28;21009;-62
2021/06/26 01:50:47;;;;;;;9.27;1.45;;;17.90;99.90;;;;;;4188705;28;20098;-60
2021/06/26 01:52:49;;;;;;;5.28;1.73;;;17.90;99.90;;;;;;4188450;28;20028;-60
2021/06/26 01:54:51;;;;;;;8.13;1.50;;;17.80;99.90;;;;;;4188582;28;20045;-60
2021/06/26 01:56:53;;;;;;;7.63;1.40;;;17.90;99.90;;;;;;4188152;28;20518;-61
2021/06/26 01:58:55;;;;;;;5.15;1.77;;;17.90;99.90;;;;;;4189014;28;20542;-62
2021/06/26 02:00:56;;;;;;;5.78;1.58;;;18.00;99.90;;;;;;4188103;28;20032;-60
2021/06/26 02:02:58;;;;;;;3.85;1.55;;;18.00;99.90;;;;;;4188938;28;20090;-61
2021/06/26 02:04:59;;;;;;;9.60;2.13;;;18.00;99.90;;;;;;4187707;28;20545;-61
2021/06/26 02:07:00;;;;;;;7.22;1.73;;;18.10;99.90;;;;;;4189442;28;20036;-61
2021/06/26 02:09:02;;;;;;;7.57;1.63;;;18.10;99.90;;;;;;4188208;28;20105;-61
2021/06/26 02:11:03;;;;;;;6.78;1.83;;;18.10;99.90;;;;;;4188039;28;20037;-60
2021/06/26 02:13:05;;;;;;;6.90;1.70;;;18.10;99.90;;;;;;4187819;28;20024;-61
2021/06/26 02:15:07;;;;;;;4.00;1.60;;;18.00;99.90;;;;;;4187546;28;20041;-60
2021/06/26 02:17:08;;;;;;;4.22;1.85;;;18.00;99.90;;;;;;4188166;28;20404;-62
2021/06/26 02:19:10;;;;;;;3.85;1.75;;;18.10;99.90;;;;;;4189250;28;20750;-61
2021/06/26 02:21:11;;;;;;;5.05;1.92;;;18.10;99.90;;;;;;4191089;28;20530;-61
2021/06/26 02:23:12;;;;;;;7.05;1.30;;;18.10;99.90;;;;;;4191020;28;20450;-61
2021/06/26 02:25:15;;;;;;;4.95;1.77;;;18.10;99.90;;;;;;4191719;28;20508;-60
2021/06/26 02:27:16;;;;;;;8.00;1.45;;;18.10;99.90;;;;;;4190902;28;20040;-62
2021/06/26 02:29:17;;;;;;;4.85;1.77;;;18.10;99.90;;;;;;4191664;28;20044;-61
2021/06/26 02:31:19;;;;;;;2.50;1.33;;;18.10;99.90;;;;;;4190939;28;20032;-61
2021/06/26 02:33:20;;;;;;;4.78;1.83;;;18.10;99.90;;;;;;4192019;28;20025;-62
2021/06/26 02:35:21;;;;;;;2.65;1.58;;;18.00;99.90;;;;;;4190772;28;20545;-61
2021/06/26 02:37:23;;;;;;;3.42;0.98;;;18.10;99.90;;;;;;4191971;28;20078;-61
2021/06/26 02:39:24;;;;;;;5.53;1.30;;;18.00;99.90;;;;;;4191271;28;20082;-61
2021/06/26 02:41:25;;;;;;;6.60;1.48;;;18.00;99.90;;;;;;4192004;28;20054;-60
2021/06/26 02:43:26;;;;;;;5.43;0.90;;;18.00;99.90;;;;;;4191140;28;20074;-60
2021/06/26 02:45:27;;;;;;;4.55;1.50;;;18.00;99.90;;;;;;4191596;28;20094;-61
2021/06/26 02:47:29;;;;;;;4.35;1.33;;;18.00;99.90;;;;;;4190318;28;20082;-62
2021/06/26 02:49:30;;;;;;;9.07;2.05;;;18.00;99.90;;;;;;4191680;28;20044;-61
2021/06/26 02:51:31;;;;;;;8.18;1.40;;;17.90;99.90;;;;;;4190989;28;20033;-62
2021/06/26 02:53:32;;;;;;;6.85;2.00;;;17.80;99.90;;;;;;4191288;28;20040;-60
2021/06/26 02:55:33;;;;;;;5.28;1.58;;;17.70;99.90;;;;;;4189763;28;20037;-61
2021/06/26 02:57:35;;;;;;;5.28;1.92;;;17.50;99.90;;;;;;4190409;28;20476;-60
2021/06/26 02:59:36;;;;;;;9.15;1.60;;;17.50;99.90;;;;;;4191370;28;20028;-59
2021/06/26 03:01:37;;;;;;;4.32;1.65;;;17.50;99.90;;;;;;4190655;28;20028;-61
2021/06/26 03:03:38;;;;;;;9.82;1.63;;;17.50;99.90;;;;;;4191244;28;20033;-61
2021/06/26 03:05:39;;;;;;;3.95;2.08;;;17.60;99.90;;;;;;4190201;28;20020;-61
2021/06/26 03:07:49;;;;;;;3.38;1.30;;;17.80;99.90;;;;;;4192559;28;20609;-62
2021/06/26 03:09:50;;;;;;;9.02;1.33;;;18.00;99.90;;;;;;4190509;28;20040;-59
2021/06/26 03:11:51;;;;;;;3.33;1.63;;;18.20;99.90;;;;;;4191714;28;20044;-60
2021/06/26 03:13:52;;;;;;;5.63;1.85;;;18.40;99.90;;;;;;4190110;28;20033;-62
2021/06/26 03:15:53;;;;;;;7.03;1.92;;;18.70;99.90;;;;;;4190115;28;20153;-60
2021/06/26 03:17:54;;;;;;;6.72;1.73;;;18.90;99.90;;;;;;4190848;28;20035;-61
2021/06/26 03:19:55;;;;;;;4.82;1.65;;;19.10;99.90;;;;;;4190984;28;20032;-61
2021/06/26 03:21:56;;;;;;;2.38;1.85;;;19.10;99.90;;;;;;4190286;28;20033;-60
2021/06/26 03:23:58;;;;;;;9.45;1.95;;;19.10;99.90;;;;;;4190813;28;20032;-61
2021/06/26 03:25:59;;;;;;;5.53;1.73;;;19.20;99.90;;;;;;4190501;28;20086;-60
2021/06/26 03:28:00;;;;;;;7.40;1.88;;;19.40;99.90;;;;;;4190856;28;20042;-60
2021/06/26 03:30:01;;;;;;;5.57;1.80;;;19.90;99.90;;;;;;4190355;28;20442;-63
2021/06/26 03:32:03;;;;;;;7.90;2.30;;;20.00;99.90;;;;;;4189925;28;20488;-61
2021/06/26 03:34:04;;;;;;;10.93;2.22;;;19.70;99.90;;;;;;4190819;28;20625;-60
2021/06/26 03:36:06;;;;;;;8.07;2.92;;;19.80;99.90;;;;;;4189019;28;20032;-60
2021/06/26 03:38:07;;;;;;;9.02;2.17;;;20.10;99.90;;;;;;4191033;28;20378;-60
2021/06/26 03:40:09;;;;;;;6.45;2.60;;;20.40;99.90;;;;;;4189656;28;20034;-60
2021/06/26 03:42:10;;;;;;;7.10;2.28;;;20.50;99.90;;;;;;4190690;28;20438;-61
2021/06/26 03:44:11;;;;;;;6.50;2.05;;;20.90;99.90;;;;;;4189824;28;20032;-61
2021/06/26 03:46:12;;;;;;;7.93;2.33;;;21.10;99.90;;;;;;4190949;28;20028;-60
2021/06/26 03:48:13;;;;;;;9.52;2.70;;;21.10;99.90;;;;;;4189717;28;20032;-60
2021/06/26 03:50:14;;;;;;;12.77;2.00;;;21.10;99.90;;;;;;4190665;28;20098;-60
2021/06/26 03:52:15;;;;;;;6.03;1.48;;;20.80;99.90;;;;;;4189357;28;20055;-60
2021/06/26 03:54:16;;;;;;;8.00;1.63;;;20.30;99.90;;;;;;4190952;28;20028;-61
2021/06/26 03:56:18;;;;;;;6.60;2.15;;;19.90;99.90;;;;;;4190055;28;20036;-60
2021/06/26 03:58:23;;;;;;;9.65;2.70;;;19.60;99.90;;;;;;4189653;28;20423;-63
2021/06/26 04:00:24;;;;;;;7.25;2.47;;;19.80;99.90;;;;;;4189621;28;20073;-61
2021/06/26 04:02:25;;;;;;;5.50;1.83;;;19.90;99.90;;;;;;4189535;28;20492;-61
2021/06/26 04:04:26;;;;;;;8.85;2.03;;;20.30;99.90;;;;;;4190355;28;20659;-62
2021/06/26 04:06:27;;;;;;;5.85;1.48;;;20.70;99.90;;;;;;4189485;28;20036;-61
2021/06/26 04:08:28;;;;;;;4.78;1.40;;;20.90;99.90;;;;;;4191002;28;20050;-61
2021/06/26 04:10:31;;;;;;;7.80;2.28;;;21.30;99.90;;;;;;4189472;28;20049;-61
2021/06/26 04:12:32;;;;;;;8.32;2.20;;;21.50;99.90;;;;;;4190041;28;20097;-61
2021/06/26 04:14:33;;;;;;;10.32;1.70;;;21.80;99.90;;;;;;4189387;28;20033;-62
2021/06/26 04:16:35;;;;;;;4.10;1.70;;;22.10;99.90;;;;;;4190491;28;20093;-60
2021/06/26 04:18:36;;;;;;;7.05;1.23;;;22.40;99.90;;;;;;4189180;28;20048;-61
2021/06/26 04:20:37;;;;;;;7.60;1.30;;;22.60;99.90;;;;;;4190346;28;20423;-64
2021/06/26 04:22:39;;;;;;;2.28;0.75;;;23.70;99.90;;;;;;4188619;28;20024;-60
2021/06/26 04:24:40;;;;;;;7.80;1.63;;;24.20;99.90;;;;;;4189337;28;20062;-60
2021/06/26 04:26:41;;;;;;;4.90;0.90;;;24.00;99.90;;;;;;4189154;28;20495;-61
2021/06/26 04:28:42;;;;;;;6.30;1.25;;;24.20;99.90;;;;;;4189173;28;20033;-60
2021/06/26 04:30:44;;;;;;;7.45;0.93;;;24.30;99.90;;;;;;4189157;28;20102;-60
2021/06/26 04:32:45;;;;;;;3.88;1.30;;;24.30;99.90;;;;;;4189503;28;20029;-61
2021/06/26 04:34:46;;;;;;;5.50;1.40;;;24.30;99.90;;;;;;4189086;28;20434;-61
2021/06/26 04:36:48;;;;;;;8.70;1.50;;;24.20;99.90;;;;;;4188695;28;20032;-61
2021/06/26 04:38:49;;;;;;;7.45;1.60;;;24.40;99.90;;;;;;4190128;28;20032;-61
2021/06/26 04:40:52;;;;;;;4.93;1.52;;;24.20;99.90;;;;;;4188555;28;20993;-61
2021/06/26 04:42:54;;;;;;;9.55;2.03;;;24.30;99.90;;;;;;4188956;28;20430;-61
2021/06/26 04:44:55;;;;;;;11.15;1.67;;;24.30;99.90;;;;;;4188422;28;20032;-61
2021/06/26 04:46:56;;;;;;;5.05;1.50;;;24.50;99.90;;;;;;4188164;28;20095;-61
2021/06/26 04:48:57;;;;;;;5.68;1.75;;;25.10;99.90;;;;;;4188401;28;20037;-60
2021/06/26 04:50:59;;;;;;;6.28;1.98;;;26.00;99.90;;;;;;4190057;28;20430;-63
2021/06/26 04:53:00;;;;;;;7.47;1.50;;;26.40;99.90;;;;;;4188656;28;20094;-61
2021/06/26 04:55:03;;;;;;;5.68;1.42;;;26.60;99.90;;;;;;4189352;28;20106;-61
2021/06/26 04:57:04;;;;;;;9.18;1.85;;;27.20;99.90;;;;;;4188950;28;20094;-63
2021/06/26 04:59:05;;;;;;;3.92;1.38;;;26.90;99.90;;;;;;4189598;28;20029;-63
2021/06/26 05:01:06;;;;;;;11.18;2.63;;;26.40;99.90;;;;;;4188788;28;20569;-61
2021/06/26 05:03:08;;;;;;;3.95;1.30;;;26.40;99.90;;;;;;4187794;28;20045;-61
2021/06/26 05:05:10;;;;;;;6.70;1.92;;;26.30;99.90;;;;;;4189408;28;20036;-62
2021/06/26 05:07:11;;;;;;;10.15;1.70;;;26.10;99.90;;;;;;4188869;28;20530;-64
2021/06/26 05:09:13;;;;;;;7.55;1.45;;;26.70;99.90;;;;;;4189388;28;20530;-61
2021/06/26 05:11:14;;;;;;;8.98;1.77;;;26.80;99.90;;;;;;4188392;28;20376;-61
2021/06/26 05:13:15;;;;;;;6.22;1.23;;;26.70;99.90;;;;;;4189238;28;20219;-60
2021/06/26 05:15:16;;;;;;;4.10;1.70;;;26.90;99.90;;;;;;4187261;28;20089;-60
2021/06/26 05:17:17;;;;;;;5.28;1.55;;;27.10;99.90;;;;;;4189161;28;20049;-60
2021/06/26 05:19:18;;;;;;;9.07;2.13;;;27.50;99.90;;;;;;4188227;28;20033;-60
2021/06/26 05:21:20;;;;;;;5.35;1.98;;;27.60;99.90;;;;;;4188108;28;20070;-61
2021/06/26 05:23:21;;;;;;;7.57;1.92;;;27.80;99.90;;;;;;4187894;28;20089;-60
2021/06/26 05:25:22;;;;;;;7.43;1.88;;;28.30;99.90;;;;;;4189316;28;20514;-60
2021/06/26 05:27:23;;;;;;;5.72;1.40;;;28.40;99.90;;;;;;4188177;28;20090;-61
2021/06/26 05:29:24;;;;;;;7.28;1.95;;;29.20;99.50;;;;;;4188857;28;20603;-60
2021/06/26 05:31:26;;;;;;;7.07;1.60;;;29.90;98.60;;;;;;4188131;28;20110;-64
2021/06/26 05:33:27;;;;;;;12.55;2.40;;;30.60;97.60;;;;;;4188100;28;20020;-60
2021/06/26 05:35:28;;;;;;;7.00;1.40;;;31.20;96.30;;;;;;4188774;28;20032;-61
2021/06/26 05:37:29;;;;;;;5.82;1.67;;;31.70;95.10;;;;;;4188322;28;20037;-63
2021/06/26 05:39:31;;;;;;;11.73;2.20;;;31.60;94.20;;;;;;4189090;28;20082;-61
2021/06/26 05:41:32;;;;;;;13.88;3.42;;;31.00;93.60;;;;;;4188401;28;20078;-60
2021/06/26 05:43:33;;;;;;;8.52;2.25;;;29.50;94.40;;;;;;4187332;28;20025;-63
2021/06/26 05:45:34;;;;;;;16.75;2.65;;;28.20;95.80;;;;;;4186311;28;20050;-61
2021/06/26 05:47:35;;;;;;;16.08;2.47;;;27.40;97.20;;;;;;4189152;28;20434;-61
2021/06/26 05:49:37;;;;;;;12.38;3.40;;;27.00;97.80;;;;;;4188322;28;20106;-61
2021/06/26 05:51:38;;;;;;;8.73;1.90;;;27.00;98.20;;;;;;4188861;28;20024;-62
2021/06/26 05:53:39;;;;;;;6.97;2.15;;;26.80;98.90;;;;;;4188697;28;20086;-62
2021/06/26 05:55:40;;;;;;;6.10;1.55;;;26.70;98.60;;;;;;4192353;28;20054;-61
2021/06/26 05:57:42;;;;;;;4.28;1.33;;;26.50;98.90;;;;;;4191173;28;20086;-62
2021/06/26 05:59:43;;;;;;;5.90;1.38;;;26.60;98.90;;;;;;4191801;28;20165;-60
2021/06/26 06:01:44;;;;;;;6.97;1.60;;;26.60;98.60;;;;;;4191476;28;20093;-61
2021/06/26 06:03:46;;;;;;;9.60;1.40;;;26.90;98.30;;;;;;4191591;28;20024;-61
2021/06/26 06:05:50;;;;;;;7.10;1.52;;;27.10;98.20;;;;;;4191776;28;20041;-61
2021/06/26 06:07:52;;;;;;;4.43;1.02;;;27.60;97.90;;;;;;4190495;28;20518;-62
2021/06/26 06:09:53;;;;;;;7.55;1.52;;;28.10;97.10;;;;;;4191913;28;20090;-62
2021/06/26 06:11:54;;;;;;;4.53;1.48;;;28.30;96.70;;;;;;4190913;28;20040;-62
2021/06/26 06:13:55;;;;;;;7.85;2.40;;;28.70;96.10;;;;;;4191321;28;20050;-63
2021/06/26 06:15:56;;;;;;;4.00;1.52;;;28.40;96.00;;;;;;4191281;28;20033;-62
2021/06/26 06:17:57;;;;;;;4.18;1.20;;;28.00;96.40;;;;;;4191968;28;20537;-62
2021/06/26 06:19:59;;;;;;;7.00;1.60;;;27.80;97.00;;;;;;4190584;28;20258;-60
2021/06/26 06:22:07;;;;;;;9.07;1.95;;;28.00;97.00;;;;;;4191543;28;20079;-60
2021/06/26 06:24:08;;;;;;;5.15;1.50;;;28.00;96.70;;;;;;4190034;28;20044;-63
2021/06/26 06:26:09;;;;;;;7.32;1.20;;;28.30;96.80;;;;;;4191120;28;20094;-63
2021/06/26 06:28:11;;;;;;;5.53;1.52;;;29.40;96.20;;;;;;4190278;28;20094;-62
2021/06/26 06:30:12;;;;;;;4.30;1.52;;;29.50;95.50;;;;;;4191460;28;20044;-60
2021/06/26 06:32:13;;;;;;;5.20;1.10;;;29.60;95.30;;;;;;4190514;28;20090;-61
2021/06/26 06:34:14;;;;;;;1.52;0.95;;;29.80;94.90;;;;;;4190716;28;20048;-65
2021/06/26 06:36:15;;;;;;;7.45;1.15;;;30.30;94.50;;;;;;4190490;28;20037;-61
2021/06/26 06:38:17;;;;;;;8.48;2.05;;;30.90;93.80;;;;;;4190697;28;20041;-60
2021/06/26 06:40:18;;;;;;;5.60;1.70;;;30.60;93.30;;;;;;4191330;28;20028;-60
2021/06/26 06:42:19;;;;;;;4.68;1.60;;;30.10;93.60;;;;;;4190559;28;20869;-61
2021/06/26 06:44:20;;;;;;;5.72;1.55;;;30.30;93.60;;;;;;4190831;28;20094;-61
2021/06/26 06:46:21;;;;;;;9.82;2.13;;;30.50;93.40;;;;;;4190233;28;20055;-63
2021/06/26 06:48:22;;;;;;;6.47;2.03;;;30.80;93.10;;;;;;4191599;28;20032;-60
2021/06/26 06:50:24;;;;;;;8.88;2.10;;;31.20;92.50;;;;;;4190116;28;20032;-61
2021/06/26 06:52:25;;;;;;;14.38;2.30;;;31.10;92.40;;;;;;4190791;28;20036;-59
2021/06/26 06:54:26;;;;;;;6.68;1.40;;;31.10;92.30;;;;;;4190467;28;20070;-66
2021/06/26 06:56:27;;;;;;;8.13;2.17;;;31.10;91.90;;;;;;4191169;28;20094;-61
2021/06/26 06:58:28;;;;;;;3.28;1.40;;;30.70;91.80;;;;;;4189855;28;20036;-61
2021/06/26 07:00:29;;;;;;;6.93;1.58;;;30.30;92.00;;;;;;4190810;28;20078;-61
2021/06/26 07:02:31;;;;;;;8.77;1.52;;;30.40;92.10;;;;;;4190518;28;20510;-62
2021/06/26 07:04:32;;;;;;;5.75;1.25;;;30.80;91.70;;;;;;4190758;28;20392;-62
2021/06/26 07:06:33;;;;;;;7.40;1.75;;;30.90;91.20;;;;;;4189708;28;20028;-62
2021/06/26 07:08:34;;;;;;;6.18;1.55;;;30.70;91.30;;;;;;4190680;28;20062;-62
2021/06/26 07:10:35;;;;;;;4.70;1.15;;;30.70;91.00;;;;;;4190985;28;20044;-62
2021/06/26 07:12:36;;;;;;;6.18;1.23;;;30.90;90.80;;;;;;4190430;28;20075;-61
2021/06/26 07:14:38;;;;;;;7.85;1.60;;;31.30;90.60;;;;;;4191334;28;20447;-61
2021/06/26 07:16:39;;;;;;;7.30;1.70;;;31.60;90.00;;;;;;4189952;28;20024;-62
2021/06/26 07:18:40;;;;;;;4.63;1.15;;;31.50;89.50;;;;;;4190912;28;20105;-62
2021/06/26 07:20:41;;;;;;;6.68;0.95;;;31.30;89.40;;;;;;4189731;28;20125;-62
2021/06/26 07:22:44;;;;;;;5.45;1.02;;;31.30;89.60;;;;;;4190987;28;20037;-62
2021/06/26 07:24:45;;;;;;;4.50;1.30;;;31.50;89.30;;;;;;4189811;28;20430;-62
2021/06/26 07:26:46;;;;;;;5.88;1.00;;;31.80;89.20;;;;;;4190789;28;20032;-62
2021/06/26 07:28:47;;;;;;;4.55;1.00;;;31.80;88.40;;;;;;4189731;28;20025;-63
2021/06/26 07:30:48;;;;;;;4.10;1.00;;;31.90;88.10;;;;;;4190078;28;20110;-63
2021/06/26 07:32:49;;;;;;;2.90;1.10;;;32.10;87.10;;;;;;4189730;28;20025;-62
2021/06/26 07:34:51;;;;;;;3.28;1.02;;;32.00;86.40;;;;;;4190372;28;20086;-63
2021/06/26 07:36:53;;;;;;;1.65;0.85;;;32.00;86.30;;;;;;4189386;28;20097;-61
2021/06/26 07:38:54;;;;;;;11.40;1.30;;;32.10;85.40;;;;;;4190215;28;20477;-62
2021/06/26 07:40:55;;;;;;;4.50;0.88;;;32.00;85.30;;;;;;4190439;28;20110;-62
2021/06/26 07:42:57;;;;;;;5.97;1.02;;;31.90;85.50;;;;;;4189680;28;20032;-61
2021/06/26 07:44:59;;;;;;;4.07;0.80;;;31.90;84.50;;;;;;4190173;28;20742;-61
2021/06/26 07:47:01;;;;;;;3.28;0.88;;;31.50;84.50;;;;;;4189268;28;20433;-62
2021/06/26 07:49:03;;;;;;;3.95;1.17;;;31.50;84.60;;;;;;4189926;28;20020;-62
2021/06/26 07:51:04;;;;;;;4.50;1.95;;;31.50;83.70;;;;;;4189112;28;20553;-62
2021/06/26 07:53:05;;;;;;;3.20;0.55;;;31.50;83.50;;;;;;4190333;28;20028;-61
2021/06/26 07:55:07;;;;;;;4.30;0.68;;;31.60;83.30;;;;;;4189643;28;20100;-62
2021/06/26 07:57:08;;;;;;;5.35;1.33;;;31.70;83.20;;;;;;4190704;28;20040;-62
2021/06/26 07:59:09;;;;;;;5.60;1.17;;;31.70;83.20;;;;;;4188974;28;20025;-62
2021/06/26 08:01:11;;;;;;;5.30;1.08;;;31.60;84.00;;;;;;4189480;28;20078;-62
2021/06/26 08:03:12;;;;;;;5.22;0.60;;;31.50;83.90;;;;;;4189066;28;20426;-62
2021/06/26 08:05:13;;;;;;;5.85;1.30;;;31.60;83.80;;;;;;4188469;28;20447;-62
2021/06/26 08:07:14;;;;;;;8.68;2.60;;;31.20;83.70;;;;;;4188849;28;20048;-62
2021/06/26 08:09:15;;;;;;;2.20;1.00;;;30.40;84.20;;;;;;4189920;28;20428;-62
2021/06/26 08:11:16;;;;;;;2.38;1.00;;;29.70;85.00;;;;;;4189321;28;20044;-62
2021/06/26 08:13:18;;;;;;;3.85;1.05;;;29.30;86.20;;;;;;4189131;28;20029;-62
2021/06/26 08:15:19;;;;;;;3.45;0.93;;;29.00;87.10;;;;;;4189366;28;20040;-61
2021/06/26 08:17:20;;;;;;;9.23;1.00;;;28.80;87.20;;;;;;4188163;28;20138;-62
2021/06/26 08:19:22;;;;;;;6.93;1.25;;;28.90;86.00;;;;;;4189689;28;20078;-61
2021/06/26 08:21:23;;;;;;;3.33;0.93;;;28.90;84.00;;;;;;4188705;28;20908;-62
2021/06/26 08:23:24;;;;;;;5.82;1.20;;;29.00;83.30;;;;;;4189421;28;20025;-62
2021/06/26 08:25:26;;;;;;;1.88;0.75;;;29.30;84.00;;;;;;4189341;28;20113;-62
2021/06/26 08:27:27;;;;;;;3.80;1.20;;;28.90;88.20;;;;;;4189255;28;20040;-62
2021/06/26 08:29:29;;;;;;;3.17;1.15;;;28.60;90.30;;;;;;4188510;28;20485;-62
2021/06/26 08:31:30;;;;;;;3.75;0.98;;;28.30;91.00;;;;;;4189421;28;20110;-61
2021/06/26 08:33:31;;;;;;;5.13;1.52;;;28.40;91.10;;;;;;4188433;28;20498;-62
2021/06/26 08:35:32;;;;;;;4.53;0.98;;;28.40;91.20;;;;;;4189217;28;20059;-62
2021/06/26 08:37:33;;;;;;;5.95;1.58;;;28.10;91.50;;;;;;4190086;28;20044;-62
2021/06/26 08:39:34;;;;;;;6.25;1.15;;;28.10;91.90;;;;;;4189478;28;20791;-62
2021/06/26 08:41:41;;;;;;;6.38;1.23;;;28.10;92.10;;;;;;4188717;28;20062;-62
2021/06/26 08:43:42;;;;;;;5.10;1.30;;;28.30;92.20;;;;;;4188529;28;20086;-63
2021/06/26 08:45:43;;;;;;;8.43;1.23;;;28.40;92.20;;;;;;4188570;28;20086;-62
2021/06/26 08:47:51;;;;;;;1.98;1.10;;;28.50;92.10;;;;;;4188918;28;20094;-63
2021/06/26 08:49:52;;;;;;;5.72;0.95;;;28.60;92.30;;;;;;4189779;28;20036;-62
2021/06/26 08:51:54;;;;;;;3.17;1.17;;;28.40;91.90;;;;;;4188435;28;20025;-62
2021/06/26 08:53:55;;;;;;;5.90;1.50;;;28.20;91.60;;;;;;4189179;28;20028;-62
2021/06/26 08:55:56;;;;;;;5.82;1.45;;;28.10;92.10;;;;;;4188215;28;20687;-62
2021/06/26 08:58:05;;;;;;;4.40;1.02;;;28.20;92.50;;;;;;4187974;28;20028;-63
2021/06/26 09:00:16;;;;;;;6.15;0.90;;;28.10;92.30;;;;;;4188106;28;20021;-63
2021/06/26 09:02:22;;;;;;;6.63;1.52;;;27.90;92.80;;;;;;4188981;28;20028;-62
2021/06/26 09:04:23;;;;;;;5.07;1.88;;;27.90;93.20;;;;;;4186423;28;20036;-62
2021/06/26 09:06:24;;;;;;;8.98;2.30;;;28.00;92.90;;;;;;4188716;28;20724;-63
2021/06/26 09:08:25;;;;;;;6.53;1.25;;;28.20;93.00;;;;;;4188393;28;20087;-62
2021/06/26 09:10:26;;;;;;;4.15;1.20;;;28.20;92.90;;;;;;4189065;28;20048;-62
2021/06/26 09:12:27;;;;;;;4.55;1.02;;;28.20;92.70;;;;;;4187952;28;20411;-61
2021/06/26 09:14:29;;;;;;;4.72;1.05;;;28.40;92.60;;;;;;4187240;28;20040;-62
2021/06/26 09:16:33;;;;;;;7.57;1.30;;;28.30;92.60;;;;;;4188120;28;20075;-61
2021/06/26 09:18:46;;;;;;;6.10;1.52;;;28.40;92.80;;;;;;4188666;28;20096;-62
2021/06/26 09:20:52;;;;;;;11.90;7.28;;;28.70;92.10;;;;;;4185913;28;20462;-62
2021/06/26 09:22:55;;;;;;;2.03;1.15;;;28.90;91.70;;;;;;4188095;28;20024;-62
2021/06/26 09:24:56;;;;;;;4.35;0.80;;;29.10;90.20;;;;;;4188411;28;20024;-62
2021/06/26 09:26:59;;;;;;;3.53;0.70;;;29.20;89.60;;;;;;4188124;28;20351;-62
2021/06/26 09:29:14;;;;;;;3.55;1.40;;;29.20;90.10;;;;;;4187433;28;20090;-62
2021/06/26 09:31:17;;;;;;;10.07;2.35;;;29.30;89.90;;;;;;4188595;28;20056;-62
2021/06/26 09:33:24;;;;;;;3.47;0.98;;;29.10;90.60;;;;;;4188210;28;20025;-62
2021/06/26 09:35:25;;;;;;;3.10;0.90;;;29.10;89.00;;;;;;4188112;28;20024;-62
2021/06/26 09:37:34;;;;;;;2.30;0.90;;;29.20;89.00;;;;;;4188320;28;20037;-62
2021/06/26 09:39:37;;;;;;;3.53;1.88;;;29.10;85.00;;;;;;4188357;28;20062;-62
2021/06/26 09:41:40;;;;;;;3.65;0.70;;;29.10;85.30;;;;;;4188575;28;20032;-62
2021/06/26 09:43:41;;;;;;;3.35;1.45;;;29.00;84.90;;;;;;4187955;28;20025;-62
2021/06/26 09:45:42;;;;;;;4.75;1.73;;;28.80;84.40;;;;;;4189246;28;20041;-62
2021/06/26 09:47:45;;;;;;;3.10;0.55;;;28.70;84.10;;;;;;4187544;28;20028;-63
2021/06/26 09:49:46;;;;;;;3.85;0.65;;;28.80;84.30;;;;;;4189391;28;20110;-62
2021/06/26 09:51:57;;;;;;;2.30;0.90;;;29.00;84.20;;;;;;4187553;28;20033;-62
2021/06/26 09:54:04;;;;;;;5.53;1.23;;;28.70;83.00;;;;;;4188995;28;20090;-63
2021/06/26 09:56:06;;;;;;;1.58;0.65;;;28.60;83.40;;;;;;4187702;28;20024;-62
2021/06/26 09:58:09;;;;;;;5.97;1.52;;;28.50;83.80;;;;;;4188482;28;20040;-62
2021/06/26 10:00:11;;;;;;;3.80;1.30;;;28.70;83.90;;;;;;4187545;28;20506;-62
2021/06/26 10:02:21;;;;;;;4.50;0.95;;;28.80;83.70;;;;;;4187686;28;20040;-62
2021/06/26 10:04:22;;;;;;;5.05;1.48;;;29.00;83.20;;;;;;4188130;28;20054;-62
2021/06/26 10:06:24;;;;;;;3.40;0.80;;;29.00;83.80;;;;;;4188299;28;20488;-61
2021/06/26 10:08:25;;;;;;;2.80;0.75;;;29.10;83.10;;;;;;4187747;28;20048;-61
2021/06/26 10:10:27;;;;;;;4.53;0.63;;;29.10;83.20;;;;;;4188584;28;20028;-61
2021/06/26 10:12:29;;;;;;;2.20;0.93;;;29.00;82.70;;;;;;4188287;28;20029;-61
2021/06/26 10:14:30;;;;;;;3.47;0.80;;;28.90;83.00;;;;;;4188037;28;20106;-62
2021/06/26 10:16:32;;;;;;;3.30;1.20;;;28.70;82.90;;;;;;4187773;28;20032;-62
2021/06/26 10:18:35;;;;;;;2.83;1.00;;;28.80;83.80;;;;;;4187845;28;20036;-61
2021/06/26 10:20:37;;;;;;;4.47;1.00;;;28.90;83.90;;;;;;4188180;28;20032;-62
2021/06/26 10:22:52;;;;;;;2.70;1.27;;;29.10;83.90;;;;;;4187282;28;20032;-62
2021/06/26 10:24:55;;;;;;;1.45;0.80;;;29.00;82.50;;;;;;4188069;28;20123;-62
2021/06/26 10:26:56;;;;;;;7.43;1.30;;;29.00;83.70;;;;;;4187169;28;20024;-61
2021/06/26 10:29:01;;;;;;;2.90;0.80;;;29.00;83.90;;;;;;4187885;28;20021;-62
2021/06/26 10:31:11;;;;;;;2.65;1.02;;;28.70;84.50;;;;;;4187799;28;20102;-62
2021/06/26 10:33:25;;;;;;;11.30;1.23;;;28.50;85.00;;;;;;4188614;28;20093;-62